Time;durP1;ratioP1;P1;durP2;ratioP2;P2;SDS_P1;SDS_P2;PMS_P1;PMS_P2;Temp;Humidity;BMP_temperature;BMP_pressure;BME280_temperature;BME280_humidity;BME280_pressure;Samples;Min_cycle;Max_cycle;Signal;HPM_P1;HPM_P2
2022/12/20 00:01:19;;;;;;;;;;;12.10;99.90;;;;;;4956166;29;20125;-77
2022/12/20 00:03:50;;;;;;;3.58;1.52;;;12.00;99.90;;;;;;4955316;29;19973;-77
2022/12/20 00:06:17;;;;;;;5.05;1.50;;;12.00;99.90;;;;;;4938666;29;20170;-76
2022/12/20 00:08:44;;;;;;;;;;;12.00;99.90;;;;;;4955592;29;20514;-77
2022/12/20 00:11:13;;;;;;;4.72;1.65;;;12.00;99.90;;;;;;4955511;29;20358;-77
2022/12/20 00:13:42;;;;;;;2.75;1.42;;;11.90;99.90;;;;;;4955063;29;20038;-77
2022/12/20 00:16:10;;;;;;;6.40;1.65;;;11.90;99.90;;;;;;4955284;29;20126;-77
2022/12/20 00:18:38;;;;;;;4.82;1.83;;;11.90;99.90;;;;;;4954856;29;20035;-77
2022/12/20 00:21:06;;;;;;;7.22;1.80;;;11.90;99.90;;;;;;4955776;29;20356;-77
2022/12/20 00:23:33;;;;;;;4.03;1.60;;;11.90;99.90;;;;;;4955346;29;20034;-77
2022/12/20 00:26:05;;;;;;;3.17;1.85;;;11.80;99.90;;;;;;4955143;29;20408;-77
2022/12/20 00:28:32;;;;;;;3.60;1.55;;;11.80;99.90;;;;;;4937500;29;20035;-75
2022/12/20 00:31:00;;;;;;;2.60;1.35;;;11.70;99.90;;;;;;4955052;29;20083;-76
2022/12/20 00:33:27;;;;;;;5.80;1.52;;;11.70;99.90;;;;;;4937294;29;20167;-78
2022/12/20 00:35:56;;;;;;;3.35;1.45;;;11.70;99.90;;;;;;4954631;29;20083;-76
2022/12/20 00:38:35;;;;;;;3.00;1.40;;;11.80;99.90;;;;;;4954614;29;20466;-77
2022/12/20 00:41:11;;;;;;;2.40;1.33;;;11.80;99.90;;;;;;4954624;29;20062;-76
2022/12/20 00:43:38;;;;;;;4.45;1.63;;;11.80;99.90;;;;;;4935909;28;20484;-76
2022/12/20 00:46:06;;;;;;;2.45;1.33;;;11.70;99.90;;;;;;4934925;29;20044;-75
2022/12/20 00:48:36;;;;;;;2.78;1.30;;;11.70;99.90;;;;;;4934798;29;20106;-75
2022/12/20 00:51:15;;;;;;;4.38;1.55;;;11.70;99.90;;;;;;4935476;29;20058;-79
2022/12/20 00:53:42;;;;;;;4.63;1.60;;;11.70;99.90;;;;;;4935271;29;20506;-77
2022/12/20 00:56:10;;;;;;;4.45;1.70;;;11.70;99.90;;;;;;4918607;29;20039;-76
2022/12/20 00:58:39;;;;;;;3.33;1.75;;;11.60;99.90;;;;;;4935585;29;20032;-76
2022/12/20 01:01:15;;;;;;;2.90;1.60;;;11.60;99.90;;;;;;4917957;29;20048;-78
2022/12/20 01:03:42;;;;;;;2.75;1.40;;;11.60;99.90;;;;;;4935364;29;20168;-77
2022/12/20 01:06:08;;;;;;;;;;;11.50;99.90;;;;;;4935291;29;20366;-78
2022/12/20 01:08:35;;;;;;;;;;;11.50;99.90;;;;;;4935920;29;19910;-77
2022/12/20 01:11:16;;;;;;;4.70;1.50;;;11.50;99.90;;;;;;4934786;29;19910;-79
2022/12/20 01:13:47;;;;;;;5.45;1.80;;;11.50;99.90;;;;;;4918502;29;20083;-78
2022/12/20 01:16:20;;;;;;;4.00;1.55;;;11.50;99.90;;;;;;4935087;29;20027;-79
2022/12/20 01:18:52;;;;;;;2.63;1.60;;;11.50;99.90;;;;;;4918854;29;20039;-78
2022/12/20 01:21:22;;;;;;;3.55;1.67;;;11.40;99.90;;;;;;4934836;29;20103;-77
2022/12/20 01:23:49;;;;;;;5.25;1.77;;;11.40;99.90;;;;;;4935187;29;20027;-77
2022/12/20 01:26:18;;;;;;;2.75;1.55;;;11.30;99.90;;;;;;4935086;29;20416;-78
2022/12/20 01:28:47;;;;;;;3.78;1.40;;;11.30;99.90;;;;;;4918593;29;20058;-77
2022/12/20 01:31:17;;;;;;;2.40;1.55;;;11.20;99.90;;;;;;4934856;29;20098;-77
2022/12/20 01:33:44;;;;;;;3.35;1.70;;;11.20;99.90;;;;;;4917448;29;20036;-79
2022/12/20 01:36:15;;;;;;;;;;;11.20;99.90;;;;;;4917765;29;20055;-78
2022/12/20 01:38:43;;;;;;;3.35;1.65;;;11.20;99.90;;;;;;4935003;29;20275;-77
2022/12/20 01:41:15;;;;;;;4.82;1.63;;;11.20;99.90;;;;;;4934566;29;20063;-79
2022/12/20 01:44:05;;;;;;;3.33;1.60;;;11.20;99.90;;;;;;4917827;29;20027;-79
2022/12/20 01:46:35;;;;;;;3.28;1.80;;;11.30;99.90;;;;;;4912929;29;20514;-78
2022/12/20 01:49:26;;;;;;;5.05;1.70;;;11.30;99.90;;;;;;4915363;29;20099;-79
2022/12/20 01:52:05;;;;;;;7.40;1.80;;;11.30;99.90;;;;;;4915873;29;20138;-78
2022/12/20 01:54:41;;;;;;;4.00;1.70;;;11.20;99.90;;;;;;4918293;29;20132;-76
2022/12/20 01:57:26;;;;;;;4.30;1.60;;;11.20;99.90;;;;;;4899780;29;20135;-78
2022/12/20 02:00:17;;;;;;;4.07;1.80;;;11.20;99.90;;;;;;4900620;29;20115;-79
2022/12/20 02:02:46;;;;;;;3.85;1.70;;;11.20;99.90;;;;;;4898870;29;20036;-79
2022/12/20 02:05:13;;;;;;;3.10;1.70;;;11.20;99.90;;;;;;4898982;29;20560;-77
2022/12/20 02:07:41;;;;;;;4.15;1.75;;;11.20;99.90;;;;;;4900175;29;20481;-78
2022/12/20 02:10:25;;;;;;;4.63;1.65;;;11.20;99.90;;;;;;4898545;29;20115;-78
2022/12/20 02:12:58;;;;;;;3.03;1.65;;;11.10;99.90;;;;;;4900499;29;20107;-79
2022/12/20 02:16:10;;;;;;;4.28;1.80;;;11.10;99.90;;;;;;4900482;29;20418;-78
2022/12/20 02:19:10;;;;;;;2.85;1.40;;;11.00;99.90;;;;;;4900420;29;20037;-78
2022/12/20 02:21:46;;;;;;;2.92;1.40;;;11.00;99.90;;;;;;4897880;29;20366;-78
2022/12/20 02:24:24;;;;;;;5.43;1.70;;;11.00;99.90;;;;;;4897709;29;20154;-78
2022/12/20 02:26:59;;;;;;;2.90;1.50;;;11.00;99.90;;;;;;4898331;29;20123;-78
2022/12/20 02:30:14;;;;;;;5.25;2.10;;;11.00;99.90;;;;;;4898172;29;20063;-79
2022/12/20 02:32:48;;;;;;;4.45;1.65;;;11.00;99.90;;;;;;4898100;29;20043;-77
2022/12/20 02:35:21;;;;;;;3.40;1.40;;;11.10;99.90;;;;;;4897775;29;20032;-77
2022/12/20 02:37:56;;;;;;;5.05;1.90;;;11.10;99.90;;;;;;4897957;29;20497;-78
2022/12/20 02:40:44;;;;;;;3.03;1.55;;;11.10;99.90;;;;;;4897681;29;20032;-77
2022/12/20 02:45:14;;;;;;;4.05;1.60;;;11.10;99.90;;;;;;4897967;29;20056;-78
2022/12/20 02:45:59;;;;;;;3.58;1.27;;;11.20;99.90;;;;;;4910473;29;20055;-77
2022/12/20 02:48:31;;;;;;;4.82;1.55;;;11.20;99.90;;;;;;4916404;29;20082;-78
2022/12/20 02:51:01;;;;;;;9.20;1.60;;;11.20;99.90;;;;;;4916354;29;20032;-79
2022/12/20 02:53:28;;;;;;;4.25;1.80;;;11.20;99.90;;;;;;4916656;29;20020;-77
2022/12/20 02:56:16;;;;;;;2.47;1.30;;;11.20;99.90;;;;;;4916105;29;20043;-77
2022/12/20 02:58:57;;;;;;;3.47;1.52;;;11.20;99.90;;;;;;4917882;29;20052;-77
2022/12/20 03:01:41;;;;;;;3.45;1.48;;;11.20;99.90;;;;;;4918516;29;20027;-77
2022/12/20 03:04:09;;;;;;;5.18;1.40;;;11.20;99.90;;;;;;4917972;29;20039;-78
2022/12/20 03:06:35;;;;;;;3.58;1.60;;;11.20;99.90;;;;;;4917344;29;20174;-77
2022/12/20 03:09:04;;;;;;;2.33;1.50;;;11.20;99.90;;;;;;4918335;29;20080;-78
2022/12/20 03:11:30;;;;;;;3.40;1.55;;;11.20;99.90;;;;;;4918028;29;20051;-77
2022/12/20 03:13:56;;;;;;;3.93;1.60;;;11.10;99.90;;;;;;4918070;29;20056;-78
2022/12/20 03:16:26;;;;;;;3.85;1.52;;;11.10;99.90;;;;;;4917987;29;20555;-76
2022/12/20 03:18:52;;;;;;;2.63;1.60;;;11.10;99.90;;;;;;4917865;29;20123;-75
2022/12/20 03:21:20;;;;;;;5.88;1.70;;;11.10;99.90;;;;;;4917624;29;20055;-77
2022/12/20 03:23:46;;;;;;;3.92;1.40;;;11.00;99.90;;;;;;4917883;29;20036;-76
2022/12/20 03:26:13;;;;;;;4.38;1.70;;;11.00;99.90;;;;;;4917782;29;20032;-74
2022/12/20 03:28:39;;;;;;;3.30;1.50;;;11.00;99.90;;;;;;4918245;29;20055;-76
2022/12/20 03:31:08;;;;;;;3.85;1.83;;;11.00;99.90;;;;;;4917651;29;20028;-76
2022/12/20 03:33:37;;;;;;;4.65;2.70;;;10.90;99.90;;;;;;4917252;29;20032;-76
2022/12/20 03:36:08;;;;;;;2.85;1.60;;;11.00;99.90;;;;;;4917211;29;20461;-76
2022/12/20 03:38:35;;;;;;;2.95;1.52;;;10.90;99.90;;;;;;4917139;29;20111;-77
2022/12/20 03:41:03;;;;;;;3.95;1.63;;;10.90;99.90;;;;;;4917676;29;20039;-76
2022/12/20 03:43:29;;;;;;;6.78;1.50;;;10.90;99.90;;;;;;4917082;29;20170;-77
2022/12/20 03:45:55;;;;;;;6.78;1.77;;;10.80;99.90;;;;;;4917420;29;20052;-77
2022/12/20 03:48:22;;;;;;;4.70;1.85;;;10.70;99.90;;;;;;4917925;29;20540;-77
2022/12/20 03:50:48;;;;;;;3.35;1.67;;;10.70;99.90;;;;;;4918148;29;20048;-77
2022/12/20 03:53:15;;;;;;;3.13;1.70;;;10.70;99.90;;;;;;4917560;29;20059;-77
2022/12/20 03:55:47;;;;;;;3.60;1.83;;;10.70;99.90;;;;;;4917114;29;20028;-77
2022/12/20 03:58:13;;;;;;;2.80;1.40;;;10.70;99.90;;;;;;4916661;29;20115;-77
2022/12/20 04:00:40;;;;;;;6.75;2.13;;;10.80;99.90;;;;;;4916578;29;20036;-78
2022/12/20 04:03:07;;;;;;;5.75;2.13;;;10.80;99.90;;;;;;4915801;29;20084;-79
2022/12/20 04:05:33;;;;;;;5.43;2.00;;;10.80;99.90;;;;;;4917087;29;20075;-79
2022/12/20 04:07:59;;;;;;;4.68;1.63;;;10.70;99.90;;;;;;4917469;29;20155;-79
2022/12/20 04:10:26;;;;;;;2.83;1.52;;;10.80;99.90;;;;;;4917552;29;20032;-79
2022/12/20 04:12:52;;;;;;;2.95;1.40;;;10.80;99.90;;;;;;4916254;29;20036;-78
2022/12/20 04:15:18;;;;;;;3.72;1.77;;;10.70;99.90;;;;;;4917677;29;20027;-79
2022/12/20 04:17:44;;;;;;;2.83;1.60;;;10.70;99.90;;;;;;4917172;29;20103;-77
2022/12/20 04:20:20;;;;;;;4.75;2.17;;;10.70;99.90;;;;;;4917367;29;20463;-77
2022/12/20 04:22:51;;;;;;;3.90;1.58;;;10.70;99.90;;;;;;4917591;29;20381;-77
2022/12/20 04:25:19;;;;;;;2.60;1.50;;;10.70;99.90;;;;;;4918384;29;20483;-76
2022/12/20 04:27:46;;;;;;;3.80;1.52;;;10.80;99.90;;;;;;4916470;29;20036;-76
2022/12/20 04:30:13;;;;;;;5.13;1.58;;;10.70;99.90;;;;;;4918402;29;20456;-76
2022/12/20 04:32:39;;;;;;;4.57;1.70;;;10.70;99.90;;;;;;4918035;29;20024;-76
2022/12/20 04:35:07;;;;;;;3.38;1.85;;;10.80;99.90;;;;;;4918360;29;20025;-79
2022/12/20 04:37:34;;;;;;;5.20;1.70;;;10.70;99.90;;;;;;4918259;29;20095;-78
2022/12/20 04:40:00;;;;;;;3.67;1.60;;;10.70;99.90;;;;;;4917671;29;20068;-79
2022/12/20 04:42:28;;;;;;;7.13;1.70;;;10.60;99.90;;;;;;4917374;29;20544;-79
2022/12/20 04:44:55;;;;;;;4.35;1.58;;;10.60;99.90;;;;;;4917593;29;20044;-79
2022/12/20 04:47:21;;;;;;;;;;;10.60;99.90;;;;;;4917709;29;20055;-79
2022/12/20 04:49:47;;;;;;;4.10;1.90;;;10.60;99.90;;;;;;4917289;29;20312;-79
2022/12/20 04:55:08;;;;;;;3.63;1.63;;;10.50;99.90;;;;;;4917402;29;20039;-77
2022/12/20 04:57:37;;;;;;;2.85;1.70;;;10.50;99.90;;;;;;4914583;29;20044;-75
2022/12/20 05:00:04;;;;;;;3.22;1.67;;;10.50;99.90;;;;;;4915314;29;20028;-74
2022/12/20 05:02:30;;;;;;;3.20;1.60;;;10.40;99.90;;;;;;4916701;29;20024;-76
2022/12/20 05:04:57;;;;;;;5.20;1.77;;;10.40;99.90;;;;;;4915560;29;20498;-75
2022/12/20 05:07:23;;;;;;;3.00;1.63;;;10.40;99.90;;;;;;4917210;29;20477;-75
2022/12/20 05:09:49;;;;;;;3.80;1.40;;;10.40;99.90;;;;;;4916948;29;20024;-75
2022/12/20 05:12:20;;;;;;;4.55;1.88;;;10.30;99.90;;;;;;4917585;29;20029;-77
2022/12/20 05:14:48;;;;;;;3.35;1.60;;;10.30;99.90;;;;;;4917468;29;20031;-77
2022/12/20 05:17:14;;;;;;;4.18;1.73;;;10.30;99.90;;;;;;4917016;29;20091;-77
2022/12/20 05:19:40;;;;;;;4.60;1.93;;;10.30;99.90;;;;;;4917421;29;20492;-76
2022/12/20 05:27:36;;;;;;;4.32;1.92;;;10.40;99.90;;;;;;4917380;29;20107;-77
2022/12/20 05:30:03;;;;;;;3.40;1.50;;;10.40;99.90;;;;;;4917072;29;20028;-75
2022/12/20 05:32:30;;;;;;;4.72;1.40;;;10.40;99.90;;;;;;4917703;29;20028;-76
2022/12/20 05:34:56;;;;;;;;;;;10.40;99.90;;;;;;4918055;29;20036;-77
2022/12/20 05:37:24;;;;;;;4.32;1.70;;;10.50;99.90;;;;;;4917032;29;20351;-76
2022/12/20 05:39:54;;;;;;;3.17;1.58;;;10.50;99.90;;;;;;4917278;29;20084;-76
2022/12/20 05:42:20;;;;;;;3.38;1.38;;;10.50;99.90;;;;;;4917656;29;20084;-75
2022/12/20 05:44:46;;;;;;;8.20;1.87;;;10.60;99.90;;;;;;4917296;29;20044;-76
2022/12/20 05:47:12;;;;;;;4.35;1.80;;;10.50;99.90;;;;;;4917509;29;20047;-73
2022/12/20 05:49:38;;;;;;;3.22;1.50;;;10.60;99.90;;;;;;4917017;29;20032;-75
2022/12/20 05:52:04;;;;;;;3.60;1.48;;;10.50;99.90;;;;;;4915641;29;20425;-76
2022/12/20 05:54:33;;;;;;;4.17;1.60;;;10.60;99.90;;;;;;4917101;29;20511;-76
2022/12/20 05:56:59;;;;;;;4.88;1.67;;;10.60;99.90;;;;;;4916040;29;20052;-77
2022/12/20 05:59:26;;;;;;;;;;;10.60;99.90;;;;;;4917190;29;20036;-75
2022/12/20 06:01:52;;;;;;;2.33;1.40;;;10.50;99.90;;;;;;4917065;29;19911;-77
2022/12/20 06:04:19;;;;;;;3.83;1.65;;;10.50;99.90;;;;;;4916602;29;20048;-76
2022/12/20 06:06:46;;;;;;;3.30;1.52;;;10.50;99.90;;;;;;4916592;29;20028;-76
2022/12/20 06:09:13;;;;;;;2.40;1.30;;;10.40;99.90;;;;;;4915905;29;20100;-77
2022/12/20 06:11:40;;;;;;;3.70;1.70;;;10.40;99.90;;;;;;4911540;29;20028;-72
2022/12/20 06:14:06;;;;;;;5.07;1.40;;;10.40;99.90;;;;;;4916079;29;20051;-76
2022/12/20 06:16:32;;;;;;;6.07;1.67;;;10.40;99.90;;;;;;4904667;29;20040;-77
2022/12/20 06:18:59;;;;;;;2.97;1.70;;;10.50;99.90;;;;;;4914307;29;20071;-77
2022/12/20 06:21:31;;;;;;;3.95;1.50;;;10.50;99.90;;;;;;4911988;29;20152;-76
2022/12/20 06:23:57;;;;;;;6.45;1.70;;;10.50;99.90;;;;;;4916459;29;20071;-76
2022/12/20 06:26:45;;;;;;;4.15;1.58;;;10.60;99.90;;;;;;4916230;29;20056;-77
2022/12/20 06:29:13;;;;;;;2.65;1.40;;;10.60;99.90;;;;;;5099165;23;20069;-79
2022/12/20 06:31:39;;;;;;;5.82;1.30;;;10.60;99.90;;;;;;4930156;29;20031;-78
2022/12/20 06:34:06;;;;;;;2.40;1.30;;;10.70;99.90;;;;;;4938452;29;20038;-77
2022/12/20 06:36:32;;;;;;;4.78;1.92;;;10.80;99.90;;;;;;4952302;28;20020;-75
2022/12/20 06:38:58;;;;;;;3.80;1.70;;;10.90;99.90;;;;;;4953644;29;20035;-71
2022/12/20 06:41:25;;;;;;;4.13;2.05;;;11.10;99.90;;;;;;4956395;28;20047;-70
2022/12/20 06:43:51;;;;;;;3.05;1.35;;;11.50;99.90;;;;;;4957061;28;20031;-71
2022/12/20 06:46:17;;;;;;;3.67;1.30;;;11.60;99.90;;;;;;4955163;28;20051;-72
2022/12/20 06:48:44;;;;;;;6.50;1.50;;;11.80;99.90;;;;;;4956472;29;20071;-73
2022/12/20 06:51:10;;;;;;;;;;;12.00;99.90;;;;;;4954813;29;20043;-73
2022/12/20 06:53:36;;;;;;;4.07;1.50;;;12.30;99.90;;;;;;4956562;28;19910;-73
2022/12/20 06:56:05;;;;;;;3.83;1.50;;;12.30;99.90;;;;;;4956417;29;20051;-75
2022/12/20 06:58:31;;;;;;;4.03;1.50;;;12.50;99.90;;;;;;4951192;29;20321;-74
2022/12/20 07:00:58;;;;;;;;;;;12.60;99.90;;;;;;4956687;29;20027;-75
2022/12/20 07:03:24;;;;;;;3.53;1.90;;;12.70;99.90;;;;;;4955036;29;19937;-76
2022/12/20 07:05:55;;;;;;;4.47;1.63;;;13.10;99.90;;;;;;4956446;29;20258;-78
2022/12/20 07:08:23;;;;;;;4.78;1.58;;;13.60;99.90;;;;;;4955288;29;20031;-75
2022/12/20 07:11:45;;;;;;;7.10;1.80;;;14.00;99.90;;;;;;4954708;29;20037;-75
2022/12/20 07:20:13;;;;;;;5.15;1.60;;;15.10;99.90;;;;;;4972977;28;20495;-74
2022/12/20 07:25:15;;;;;;;3.90;1.67;;;15.30;99.90;;;;;;5042298;23;20072;-76
2022/12/20 07:33:11;;;;;;;4.20;1.58;;;15.60;99.90;;;;;;5108843;23;20059;-77
2022/12/20 07:38:09;;;;;;;4.13;1.70;;;16.20;99.90;;;;;;4989701;23;20051;-82
2022/12/20 07:40:42;;;;;;;19.92;2.97;;;16.00;99.90;;;;;;4982897;23;20058;-79
2022/12/20 07:43:10;;;;;;;3.35;1.70;;;16.10;99.90;;;;;;4973475;28;20092;-83
2022/12/20 07:46:39;;;;;;;7.72;1.83;;;16.00;99.90;;;;;;4997850;23;20117;-79
2022/12/20 07:49:10;;;;;;;4.40;1.50;;;15.70;99.90;;;;;;4956525;29;20038;-77
2022/12/20 07:54:08;;;;;;;3.90;1.37;;;14.40;99.90;;;;;;4980806;23;20058;-78
2022/12/20 07:59:02;;;;;;;5.37;1.97;;;14.00;99.90;;;;;;4974346;23;20055;-78
2022/12/20 08:01:37;;;;;;;3.33;1.60;;;13.80;99.90;;;;;;4976461;23;20101;-79
2022/12/20 08:06:48;;;;;;;5.75;1.73;;;13.30;99.90;;;;;;4972207;23;20057;-72
2022/12/20 08:09:16;;;;;;;5.88;1.90;;;13.20;99.90;;;;;;4950757;28;20081;-70
2022/12/20 08:11:47;;;;;;;3.65;1.70;;;13.40;99.90;;;;;;4972172;28;20494;-73
2022/12/20 08:14:17;;;;;;;4.43;1.70;;;13.40;99.90;;;;;;4972574;28;20035;-72
2022/12/20 08:16:43;;;;;;;3.38;1.80;;;13.20;99.90;;;;;;4973336;28;20038;-75
2022/12/20 08:19:10;;;;;;;4.90;1.63;;;13.30;99.90;;;;;;4973234;28;20035;-70
2022/12/20 08:21:38;;;;;;;4.22;1.60;;;13.60;99.90;;;;;;4974222;28;20263;-74
2022/12/20 08:24:07;;;;;;;6.43;2.00;;;13.60;99.90;;;;;;4974093;28;20042;-73
2022/12/20 08:26:37;;;;;;;6.40;1.80;;;13.80;99.90;;;;;;4972954;28;20026;-72
2022/12/20 08:29:08;;;;;;;5.45;1.90;;;14.10;99.90;;;;;;4972124;28;20030;-80
2022/12/20 08:31:39;;;;;;;3.53;2.00;;;14.20;99.90;;;;;;4957281;28;20152;-75
2022/12/20 08:34:06;;;;;;;4.85;1.90;;;14.40;99.90;;;;;;4941287;28;20037;-73
2022/12/20 08:36:31;;;;;;;;;;;14.50;99.90;;;;;;4969317;28;20482;-71
2022/12/20 08:39:01;;;;;;;4.13;1.90;;;14.70;99.90;;;;;;4968057;28;19918;-72
2022/12/20 08:41:50;;;;;;;3.75;1.83;;;14.40;99.90;;;;;;4960530;28;20030;-73
2022/12/20 08:44:48;;;;;;;4.97;2.22;;;14.30;99.90;;;;;;4966294;28;20098;-76
2022/12/20 08:47:14;;;;;;;3.70;1.80;;;14.30;99.90;;;;;;4983117;23;20067;-74
2022/12/20 08:50:20;;;;;;;4.22;2.00;;;14.40;99.90;;;;;;4963556;28;20031;-74
2022/12/20 08:52:46;;;;;;;4.53;1.70;;;14.30;99.90;;;;;;4972895;28;20030;-75
2022/12/20 08:55:36;;;;;;;2.40;1.50;;;14.30;99.90;;;;;;4973552;28;20035;-74
2022/12/20 08:58:02;;;;;;;6.75;1.90;;;14.30;99.90;;;;;;4973582;28;20479;-75
2022/12/20 09:00:52;;;;;;;6.72;1.58;;;14.40;99.90;;;;;;4968341;28;20483;-76
2022/12/20 09:03:52;;;;;;;4.80;1.90;;;14.30;99.90;;;;;;4972171;28;20042;-69
2022/12/20 09:06:51;;;;;;;3.80;1.92;;;14.60;99.90;;;;;;4952786;28;20054;-74
2022/12/20 09:09:45;;;;;;;8.00;1.98;;;14.70;99.90;;;;;;4965326;28;20384;-71
2022/12/20 09:12:23;;;;;;;6.53;1.80;;;14.80;99.90;;;;;;4956253;28;20468;-70
2022/12/20 09:15:02;;;;;;;4.43;1.75;;;15.10;99.90;;;;;;4973338;28;20026;-79
2022/12/20 09:18:12;;;;;;;7.50;1.80;;;15.00;99.90;;;;;;4980519;23;20082;-77
2022/12/20 09:21:28;;;;;;;5.60;2.00;;;15.10;99.90;;;;;;4970487;28;20117;-74
2022/12/20 09:23:57;;;;;;;4.80;1.70;;;15.20;99.90;;;;;;4971783;28;20059;-76
2022/12/20 09:26:25;;;;;;;2.90;1.80;;;15.00;99.90;;;;;;4980726;23;20423;-73
2022/12/20 09:29:47;;;;;;;7.57;2.28;;;15.20;99.90;;;;;;4972157;28;20121;-73
2022/12/20 09:32:55;;;;;;;3.67;1.55;;;15.40;99.90;;;;;;4934860;28;20035;-72
2022/12/20 09:35:23;;;;;;;3.77;1.90;;;15.50;99.90;;;;;;4959717;28;20030;-74
2022/12/20 09:37:50;;;;;;;4.10;1.73;;;15.50;99.90;;;;;;4953223;28;20382;-74
2022/12/20 09:40:23;;;;;;;5.75;1.80;;;15.60;99.90;;;;;;4973624;28;20031;-73
2022/12/20 09:43:09;;;;;;;3.28;1.42;;;15.60;99.90;;;;;;4973292;28;20387;-72
2022/12/20 09:45:36;;;;;;;3.97;1.60;;;15.60;99.90;;;;;;4956452;28;20101;-74
2022/12/20 09:48:04;;;;;;;4.13;1.75;;;15.70;99.90;;;;;;4970868;28;20050;-72
2022/12/20 09:50:48;;;;;;;7.68;2.03;;;15.70;99.90;;;;;;4972805;28;20051;-73
2022/12/20 09:53:39;;;;;;;4.68;1.80;;;16.00;99.90;;;;;;4955926;28;20059;-73
2022/12/20 09:56:10;;;;;;;3.30;1.80;;;15.80;99.90;;;;;;4973617;28;20035;-73
2022/12/20 09:58:45;;;;;;;4.05;1.95;;;16.00;99.90;;;;;;4956000;28;20051;-75
2022/12/20 10:01:19;;;;;;;4.00;2.03;;;16.20;99.90;;;;;;4973470;28;20062;-73
2022/12/20 10:03:45;;;;;;;4.95;1.30;;;16.40;99.90;;;;;;4973019;28;20062;-70
2022/12/20 10:06:35;;;;;;;3.25;1.42;;;16.30;99.90;;;;;;4972926;28;20023;-70
2022/12/20 10:09:13;;;;;;;4.07;1.60;;;16.30;99.90;;;;;;4967647;28;20034;-69
2022/12/20 10:12:14;;;;;;;4.53;1.75;;;16.60;99.90;;;;;;4973315;28;20031;-71
2022/12/20 10:15:16;;;;;;;7.18;1.98;;;16.90;99.90;;;;;;4972977;28;20038;-67
2022/12/20 10:18:02;;;;;;;6.82;1.90;;;17.10;99.90;;;;;;4976511;28;20065;-68
2022/12/20 10:20:51;;;;;;;3.00;1.60;;;16.40;99.90;;;;;;4966076;28;20023;-67
2022/12/20 10:23:29;;;;;;;7.82;1.58;;;15.90;99.90;;;;;;4975762;28;20118;-69
2022/12/20 10:25:57;;;;;;;4.65;1.50;;;16.00;99.90;;;;;;4974109;28;20080;-72
2022/12/20 10:28:32;;;;;;;3.42;1.50;;;15.90;99.90;;;;;;4943065;28;20038;-72
2022/12/20 10:31:06;;;;;;;4.13;1.40;;;16.10;99.90;;;;;;4976979;28;20050;-76
2022/12/20 10:33:33;;;;;;;4.28;1.50;;;16.10;99.90;;;;;;4957995;28;20030;-77
2022/12/20 10:36:25;;;;;;;4.82;1.50;;;16.30;99.90;;;;;;4976369;28;20035;-71
2022/12/20 10:38:57;;;;;;;4.80;1.33;;;16.80;99.90;;;;;;4976731;28;20116;-73
2022/12/20 10:41:47;;;;;;;3.80;1.40;;;16.90;99.90;;;;;;4975471;28;20027;-71
2022/12/20 10:44:25;;;;;;;3.83;1.40;;;17.20;99.90;;;;;;4969036;28;20038;-71
2022/12/20 10:47:00;;;;;;;6.35;1.67;;;17.30;99.90;;;;;;4973544;28;20506;-70
2022/12/20 10:49:28;;;;;;;6.70;2.70;;;17.40;99.90;;;;;;4976038;28;20479;-70
2022/12/20 10:52:05;;;;;;;7.80;2.53;;;17.80;99.90;;;;;;4975031;28;20090;-69
2022/12/20 10:54:36;;;;;;;7.07;2.63;;;18.00;99.90;;;;;;4956881;29;20023;-68
2022/12/20 10:57:33;;;;;;;8.40;2.50;;;17.90;99.90;;;;;;4964710;28;20034;-69
2022/12/20 11:00:05;;;;;;;6.07;2.63;;;17.60;99.90;;;;;;4958063;28;20043;-69
2022/12/20 11:02:38;;;;;;;6.82;2.38;;;17.80;99.90;;;;;;4969289;28;20023;-71
2022/12/20 11:05:14;;;;;;;8.38;2.95;;;17.90;99.90;;;;;;4956743;28;20091;-71
2022/12/20 11:07:56;;;;;;;6.88;2.20;;;18.10;99.90;;;;;;4956886;29;20027;-76
2022/12/20 11:10:27;;;;;;;8.85;2.53;;;18.10;99.90;;;;;;4970712;28;20031;-69
2022/12/20 11:13:00;;;;;;;5.40;2.50;;;18.20;99.90;;;;;;4975636;28;20027;-68
2022/12/20 11:15:28;;;;;;;4.10;1.90;;;18.20;99.90;;;;;;4973119;28;20487;-68
2022/12/20 11:18:22;;;;;;;5.75;2.10;;;17.70;99.90;;;;;;4969767;28;20039;-67
2022/12/20 11:21:33;;;;;;;4.93;1.92;;;17.40;99.90;;;;;;4968401;28;20546;-70
2022/12/20 11:24:12;;;;;;;3.90;1.98;;;17.50;99.90;;;;;;4915112;29;20047;-71
2022/12/20 11:27:04;;;;;;;4.35;2.10;;;17.70;99.90;;;;;;4913884;29;20139;-67
2022/12/20 11:29:48;;;;;;;6.25;2.20;;;17.80;99.90;;;;;;4914917;29;20055;-66
2022/12/20 11:32:23;;;;;;;5.50;2.80;;;17.90;99.90;;;;;;4914187;29;20062;-77
2022/12/20 11:35:16;;;;;;;4.57;2.45;;;18.20;99.90;;;;;;4915024;29;20087;-70
2022/12/20 11:38:04;;;;;;;5.80;2.53;;;18.40;99.90;;;;;;4915307;29;20083;-71
2022/12/20 11:40:42;;;;;;;10.50;3.28;;;18.70;99.90;;;;;;4916050;29;20052;-72
2022/12/20 11:43:30;;;;;;;5.22;2.47;;;18.90;99.90;;;;;;4915297;29;20035;-70
2022/12/20 11:46:22;;;;;;;8.02;3.33;;;18.80;99.90;;;;;;4915954;29;20032;-71
2022/12/20 11:49:15;;;;;;;7.63;3.00;;;19.00;99.90;;;;;;4902562;29;20068;-73
2022/12/20 11:51:49;;;;;;;7.75;2.17;;;19.20;99.90;;;;;;4900550;29;20152;-76
2022/12/20 11:57:17;;;;;;;5.53;2.30;;;19.10;99.90;;;;;;4980228;23;20431;-72
2022/12/20 12:00:01;;;;;;;6.57;2.50;;;18.90;99.90;;;;;;4975028;28;20034;-76
2022/12/20 12:02:50;;;;;;;5.90;1.95;;;18.80;99.90;;;;;;4959720;28;20038;-74
2022/12/20 12:05:40;;;;;;;3.40;1.65;;;18.90;99.90;;;;;;4971060;28;20454;-76
2022/12/20 12:08:15;;;;;;;6.22;1.80;;;18.90;99.90;;;;;;4973034;28;20388;-77
2022/12/20 12:10:52;;;;;;;4.72;1.80;;;19.00;99.90;;;;;;4958297;28;20058;-76
2022/12/20 12:13:30;;;;;;;5.40;1.88;;;19.00;99.90;;;;;;4974826;28;20033;-73
2022/12/20 12:16:32;;;;;;;6.13;1.98;;;19.10;99.90;;;;;;4974419;28;20360;-75
2022/12/20 12:19:00;;;;;;;5.82;1.80;;;19.20;99.90;;;;;;4974806;28;20034;-75
2022/12/20 12:22:01;;;;;;;4.68;1.77;;;19.20;99.90;;;;;;4974918;28;20494;-74
2022/12/20 12:24:38;;;;;;;10.13;1.50;;;18.90;99.90;;;;;;4933896;29;20047;-74
2022/12/20 12:27:25;;;;;;;2.17;1.27;;;18.80;99.90;;;;;;4917948;29;20020;-74
2022/12/20 12:29:57;;;;;;;4.60;1.70;;;18.80;99.90;;;;;;4918484;29;20086;-75
2022/12/20 12:32:37;;;;;;;4.45;1.55;;;18.80;99.90;;;;;;4933826;29;20428;-76
2022/12/20 12:35:21;;;;;;;5.25;1.75;;;19.00;99.90;;;;;;4926786;29;20151;-73
2022/12/20 12:38:05;;;;;;;5.85;1.85;;;19.00;99.90;;;;;;4922147;29;20036;-74
2022/12/20 12:40:40;;;;;;;3.97;1.70;;;18.70;99.90;;;;;;4924655;29;20031;-74
2022/12/20 12:43:21;;;;;;;5.70;1.63;;;18.90;99.90;;;;;;4925974;29;20086;-76
2022/12/20 12:45:58;;;;;;;8.57;1.88;;;18.90;99.90;;;;;;4915443;29;20067;-75
2022/12/20 12:49:05;;;;;;;4.00;1.67;;;18.80;99.90;;;;;;4929536;29;20410;-76
2022/12/20 12:51:39;;;;;;;6.13;1.58;;;18.80;99.90;;;;;;4874923;29;20497;-75
2022/12/20 12:54:32;;;;;;;4.38;1.77;;;18.90;99.90;;;;;;4869736;29;20045;-75
2022/12/20 12:57:18;;;;;;;5.78;1.77;;;18.80;99.90;;;;;;4873820;29;20044;-74
2022/12/20 12:59:46;;;;;;;;;;;18.60;99.90;;;;;;4877007;29;20477;-76
2022/12/20 13:02:12;;;;;;;5.68;1.80;;;18.60;99.90;;;;;;4891923;29;19934;-70
2022/12/20 13:05:09;;;;;;;6.68;1.80;;;18.50;99.90;;;;;;4895722;29;20040;-71
2022/12/20 13:07:36;;;;;;;4.68;1.65;;;18.50;99.90;;;;;;4897543;29;20033;-73
2022/12/20 13:10:28;;;;;;;5.13;1.83;;;18.50;99.90;;;;;;4897332;29;20132;-70
2022/12/20 13:13:00;;;;;;;8.48;2.30;;;18.60;99.90;;;;;;4860045;29;20055;-71
2022/12/20 13:15:31;;;;;;;7.97;2.10;;;18.60;99.90;;;;;;4877213;29;20040;-72
2022/12/20 13:18:19;;;;;;;7.82;2.10;;;18.60;99.90;;;;;;4877546;29;20124;-71
2022/12/20 13:21:29;;;;;;;7.95;2.00;;;18.60;99.90;;;;;;4878267;29;20037;-75
2022/12/20 13:24:47;;;;;;;6.22;2.22;;;18.60;99.90;;;;;;4877756;29;20145;-72
2022/12/20 13:27:30;;;;;;;5.40;2.13;;;18.60;99.90;;;;;;4851545;29;20056;-77
2022/12/20 13:30:12;;;;;;;9.63;2.60;;;18.70;99.90;;;;;;4877905;29;20052;-73
2022/12/20 13:32:47;;;;;;;8.02;2.30;;;18.50;99.90;;;;;;4877496;29;20089;-72
2022/12/20 13:36:19;;;;;;;8.27;2.20;;;18.30;99.90;;;;;;4877531;29;20065;-79
2022/12/20 13:38:56;;;;;;;7.90;2.50;;;18.20;99.90;;;;;;4845849;29;20045;-73
2022/12/20 13:41:29;;;;;;;5.78;2.03;;;18.20;99.90;;;;;;4852183;29;20416;-74
2022/12/20 13:44:09;;;;;;;4.80;2.00;;;18.30;99.90;;;;;;4851897;29;20050;-71
2022/12/20 13:46:53;;;;;;;6.38;2.70;;;18.40;99.90;;;;;;4850513;29;20132;-68
2022/12/20 13:49:38;;;;;;;7.97;2.72;;;18.40;99.90;;;;;;4840671;29;20053;-74
2022/12/20 13:52:24;;;;;;;5.63;2.22;;;18.30;99.90;;;;;;4853994;29;20048;-73
2022/12/20 13:54:57;;;;;;;10.85;3.20;;;18.20;99.90;;;;;;4849731;29;20066;-72
2022/12/20 13:57:31;;;;;;;5.63;2.70;;;18.10;99.90;;;;;;4870449;23;20602;-73
2022/12/20 14:00:01;;;;;;;9.27;2.80;;;18.10;99.90;;;;;;4936892;29;20078;-76
2022/12/20 14:02:47;;;;;;;7.40;2.70;;;18.10;99.90;;;;;;4933217;23;20142;-81
2022/12/20 14:05:18;;;;;;;9.57;2.90;;;18.20;99.90;;;;;;4935594;28;20050;-69
2022/12/20 14:07:47;;;;;;;7.03;2.40;;;18.10;99.90;;;;;;4969364;28;20031;-69